Time;durP1;ratioP1;P1;durP2;ratioP2;P2;SDS_P1;SDS_P2;PMS_P1;PMS_P2;Temp;Humidity;BMP_temperature;BMP_pressure;BME280_temperature;BME280_humidity;BME280_pressure;Samples;Min_cycle;Max_cycle;Signal;HPM_P1;HPM_P2
2023/11/20 00:02:16;;;;;;;16.92;1.95;;;11.20;99.90;;;;;;4985889;28;20114;-82
2023/11/20 00:04:41;;;;;;;13.98;2.17;;;11.20;99.90;;;;;;4983053;28;20042;-88
2023/11/20 00:07:07;;;;;;;18.10;1.95;;;11.20;99.90;;;;;;4993209;28;20085;-80
2023/11/20 00:09:33;;;;;;;18.60;2.33;;;11.20;99.90;;;;;;4977161;28;20108;-82
2023/11/20 00:11:59;;;;;;;19.52;1.98;;;11.20;99.90;;;;;;4986232;28;20037;-82
2023/11/20 00:14:25;;;;;;;18.13;2.38;;;11.20;99.90;;;;;;4981213;28;20045;-90
2023/11/20 00:16:52;;;;;;;17.10;1.73;;;11.20;99.90;;;;;;4984547;28;20046;-83
2023/11/20 00:19:18;;;;;;;11.93;1.95;;;11.20;99.90;;;;;;4965308;28;20019;-80
2023/11/20 00:21:44;;;;;;;11.23;1.60;;;11.20;99.90;;;;;;4977587;28;20038;-86
2023/11/20 00:24:10;;;;;;;15.18;1.75;;;11.10;99.90;;;;;;4984050;28;20031;-84
2023/11/20 00:26:37;;;;;;;17.02;2.25;;;11.10;99.90;;;;;;4975191;28;20101;-81
2023/11/20 00:29:05;;;;;;;15.95;1.95;;;11.20;99.90;;;;;;4989398;28;20031;-80
2023/11/20 00:31:32;;;;;;;14.52;1.60;;;11.10;99.90;;;;;;4993903;28;20039;-80
2023/11/20 00:33:59;;;;;;;16.85;2.35;;;11.10;99.90;;;;;;4960441;28;20031;-84
2023/11/20 00:36:24;;;;;;;18.42;2.45;;;11.10;99.90;;;;;;4976095;28;20042;-87
2023/11/20 00:38:50;;;;;;;17.15;2.42;;;11.10;99.90;;;;;;4985121;28;20035;-86
2023/11/20 00:41:17;;;;;;;15.85;2.05;;;11.10;99.90;;;;;;4984434;28;20081;-87
2023/11/20 00:43:42;;;;;;;14.93;1.52;;;11.10;99.90;;;;;;4974612;28;20055;-80
2023/11/20 00:46:08;;;;;;;12.75;1.95;;;11.10;99.90;;;;;;4973468;28;20062;-84
2023/11/20 00:48:34;;;;;;;13.27;1.27;;;11.00;99.90;;;;;;4976407;28;20733;-85
2023/11/20 00:50:59;;;;;;;14.05;2.03;;;11.10;99.90;;;;;;4978908;28;20102;-81
2023/11/20 00:53:25;;;;;;;12.25;2.00;;;11.00;99.90;;;;;;4990986;28;20085;-83
2023/11/20 00:55:51;;;;;;;11.20;1.60;;;11.00;99.90;;;;;;4974923;28;20041;-85
2023/11/20 00:58:17;;;;;;;10.18;1.00;;;11.00;99.90;;;;;;4993260;28;20548;-89
2023/11/20 01:00:42;;;;;;;10.90;1.50;;;11.10;99.90;;;;;;4979703;28;20122;-81
2023/11/20 01:03:08;;;;;;;10.40;1.33;;;11.00;99.90;;;;;;4979518;28;20353;-86
2023/11/20 01:05:34;;;;;;;8.98;1.25;;;11.00;99.90;;;;;;4978738;28;20129;-83
2023/11/20 01:08:00;;;;;;;9.05;1.05;;;11.00;99.90;;;;;;4986710;28;20026;-83
2023/11/20 01:10:26;;;;;;;11.00;1.40;;;11.00;99.90;;;;;;4977244;28;20022;-81
2023/11/20 01:12:51;;;;;;;7.75;1.13;;;11.00;99.90;;;;;;4998966;28;20505;-83
2023/11/20 01:15:17;;;;;;;11.40;1.30;;;11.00;99.90;;;;;;4975841;28;20015;-86
2023/11/20 01:17:43;;;;;;;16.60;2.08;;;11.00;99.90;;;;;;4978280;28;20116;-81
2023/11/20 01:20:12;;;;;;;11.75;1.60;;;11.00;99.90;;;;;;4991308;28;20038;-84
2023/11/20 01:22:38;;;;;;;10.82;1.38;;;11.00;99.90;;;;;;4983553;28;20095;-86
2023/11/20 01:25:04;;;;;;;17.15;2.80;;;11.00;99.90;;;;;;4975066;28;20022;-85
2023/11/20 01:27:29;;;;;;;19.45;1.95;;;10.90;99.90;;;;;;4984619;28;20108;-83
2023/11/20 01:29:55;;;;;;;10.90;1.55;;;11.00;99.90;;;;;;4984346;28;20022;-84
2023/11/20 01:32:21;;;;;;;17.08;1.77;;;10.90;99.90;;;;;;4990552;28;20080;-85
2023/11/20 01:34:47;;;;;;;17.27;1.40;;;10.90;99.90;;;;;;4979906;28;20026;-86
2023/11/20 01:37:13;;;;;;;15.68;2.03;;;10.90;99.90;;;;;;4985744;28;20116;-89
2023/11/20 01:39:39;;;;;;;12.50;1.65;;;11.00;99.90;;;;;;4983749;28;20554;-83
2023/11/20 01:42:05;;;;;;;15.82;2.38;;;10.90;99.90;;;;;;4976611;28;20026;-87
2023/11/20 01:44:31;;;;;;;9.63;1.58;;;10.90;99.90;;;;;;4991647;28;20034;-83
2023/11/20 01:46:57;;;;;;;13.45;1.13;;;10.90;99.90;;;;;;4994987;28;20035;-84
2023/11/20 01:49:27;;;;;;;12.43;2.15;;;10.90;99.90;;;;;;4991715;28;20054;-84
2023/11/20 01:51:53;;;;;;;11.95;1.58;;;10.90;99.90;;;;;;4993389;28;20023;-85
2023/11/20 01:54:20;;;;;;;11.07;0.85;;;10.90;99.90;;;;;;4977779;28;20421;-80
2023/11/20 01:56:46;;;;;;;12.45;1.35;;;10.90;99.90;;;;;;4991441;28;20514;-86
2023/11/20 01:59:16;;;;;;;13.23;1.65;;;10.90;99.90;;;;;;4993335;28;20023;-85
2023/11/20 02:01:43;;;;;;;12.55;1.35;;;10.90;99.90;;;;;;4986781;28;20030;-83
2023/11/20 02:04:10;;;;;;;9.45;1.10;;;10.90;99.90;;;;;;4981363;28;20542;-85
2023/11/20 02:06:36;;;;;;;12.95;0.80;;;10.90;99.90;;;;;;4985171;28;20050;-85
2023/11/20 02:09:01;;;;;;;15.52;1.45;;;10.80;99.90;;;;;;4984440;28;20039;-83
2023/11/20 02:11:28;;;;;;;10.55;0.80;;;10.90;99.90;;;;;;4999167;28;20084;-85
2023/11/20 02:13:55;;;;;;;10.82;1.42;;;10.80;99.90;;;;;;4972427;28;20036;-84
2023/11/20 02:16:21;;;;;;;12.02;0.80;;;10.80;99.90;;;;;;4982636;28;20047;-90
2023/11/20 02:18:46;;;;;;;17.38;1.05;;;10.80;99.90;;;;;;4977595;28;20034;-83
2023/11/20 02:21:12;;;;;;;15.75;1.23;;;10.80;99.90;;;;;;4979853;28;20030;-85
2023/11/20 02:23:38;;;;;;;13.93;1.48;;;10.80;99.90;;;;;;4984373;28;20234;-83
2023/11/20 02:26:26;;;;;;;13.32;1.50;;;10.70;99.90;;;;;;4982064;28;20478;-87
2023/11/20 02:29:05;;;;;;;14.45;1.25;;;10.70;99.90;;;;;;4981868;28;20022;-81
2023/11/20 02:31:33;;;;;;;10.27;0.93;;;10.70;99.90;;;;;;5000508;28;20045;-83
2023/11/20 02:34:02;;;;;;;13.23;1.00;;;10.70;99.90;;;;;;4981981;28;20475;-90
2023/11/20 02:36:28;;;;;;;15.85;0.98;;;10.70;99.90;;;;;;4994708;28;20046;-81
2023/11/20 02:38:54;;;;;;;10.30;0.70;;;10.70;99.90;;;;;;4983319;28;20022;-84
2023/11/20 02:41:19;;;;;;;12.57;0.98;;;10.70;99.90;;;;;;4996320;28;20065;-84
2023/11/20 02:43:46;;;;;;;17.92;1.45;;;10.70;99.90;;;;;;4982365;28;20080;-82
2023/11/20 02:46:11;;;;;;;12.00;1.27;;;10.70;99.90;;;;;;4969578;28;20089;-83
2023/11/20 02:48:37;;;;;;;15.38;0.85;;;10.60;99.90;;;;;;4986692;28;20030;-88
2023/11/20 02:51:04;;;;;;;11.65;0.68;;;10.60;99.90;;;;;;4980298;28;20031;-83
2023/11/20 02:53:30;;;;;;;14.35;1.13;;;10.70;99.90;;;;;;4983838;28;20038;-81
2023/11/20 02:55:57;;;;;;;15.20;0.98;;;10.60;99.90;;;;;;4981650;28;20049;-86
2023/11/20 02:58:23;;;;;;;12.95;1.23;;;10.60;99.90;;;;;;4987531;28;20441;-88
2023/11/20 03:00:49;;;;;;;12.90;1.63;;;10.60;99.90;;;;;;4969246;28;20098;-82
2023/11/20 03:03:15;;;;;;;22.25;1.52;;;10.60;99.90;;;;;;4982486;28;20027;-84
2023/11/20 03:05:44;;;;;;;15.18;1.10;;;10.60;99.90;;;;;;4998285;28;20193;-91
2023/11/20 03:08:11;;;;;;;11.75;0.73;;;10.60;99.90;;;;;;4997223;28;21959;-86
2023/11/20 03:10:37;;;;;;;17.40;0.95;;;10.60;99.90;;;;;;4978046;28;20038;-87
2023/11/20 03:13:03;;;;;;;12.73;0.95;;;10.60;99.90;;;;;;4991839;28;20154;-86
2023/11/20 03:15:28;;;;;;;14.48;0.98;;;10.60;99.90;;;;;;4983001;28;20034;-84
2023/11/20 03:17:54;;;;;;;16.55;1.42;;;10.60;99.90;;;;;;4977759;28;20034;-85
2023/11/20 03:20:23;;;;;;;12.85;1.60;;;10.60;99.90;;;;;;4980941;28;20026;-85
2023/11/20 03:22:50;;;;;;;12.50;1.23;;;10.60;99.90;;;;;;4966156;28;20391;-84
2023/11/20 03:25:15;;;;;;;18.92;1.13;;;10.60;99.90;;;;;;4986776;28;20463;-84
2023/11/20 03:27:42;;;;;;;18.73;1.73;;;10.60;99.90;;;;;;4988070;28;20035;-90
2023/11/20 03:30:09;;;;;;;17.60;1.48;;;10.60;99.90;;;;;;4986982;28;20031;-84
2023/11/20 03:32:38;;;;;;;14.40;1.27;;;10.60;99.90;;;;;;4983463;28;20066;-83
2023/11/20 03:35:05;;;;;;;12.40;1.83;;;10.60;99.90;;;;;;4976805;28;20030;-84
2023/11/20 03:37:31;;;;;;;24.55;2.22;;;10.60;99.90;;;;;;4979614;28;20092;-81
2023/11/20 03:39:57;;;;;;;15.00;1.52;;;10.60;99.90;;;;;;4991940;28;20027;-86
2023/11/20 03:42:23;;;;;;;16.02;1.60;;;10.60;99.90;;;;;;4964236;28;20034;-81
2023/11/20 03:44:48;;;;;;;14.55;1.90;;;10.60;99.90;;;;;;4963844;28;21056;-84
2023/11/20 03:47:14;;;;;;;15.73;1.77;;;10.60;99.90;;;;;;4991951;28;20026;-85
2023/11/20 03:49:40;;;;;;;15.90;1.70;;;10.60;99.90;;;;;;4963498;28;20037;-81
2023/11/20 03:52:05;;;;;;;12.88;2.25;;;10.60;99.90;;;;;;4987591;28;20471;-79
2023/11/20 03:54:32;;;;;;;17.50;1.83;;;10.60;99.90;;;;;;4987004;28;20037;-78
2023/11/20 03:56:57;;;;;;;14.65;0.95;;;10.70;99.90;;;;;;4965311;28;20409;-80
2023/11/20 03:59:23;;;;;;;21.30;1.35;;;10.70;99.90;;;;;;4978799;28;20030;-81
2023/11/20 04:01:50;;;;;;;20.90;1.40;;;10.70;99.90;;;;;;4967370;28;20118;-82
2023/11/20 04:04:16;;;;;;;14.70;0.93;;;10.70;99.90;;;;;;4978033;28;20506;-82
2023/11/20 04:06:42;;;;;;;19.67;1.45;;;10.70;99.90;;;;;;4982412;28;20453;-80
2023/11/20 04:09:08;;;;;;;23.70;1.30;;;10.80;99.90;;;;;;4983531;28;20030;-79
2023/11/20 04:11:35;;;;;;;17.00;0.93;;;10.70;99.90;;;;;;4985840;28;20117;-79
2023/11/20 04:14:01;;;;;;;20.92;1.40;;;10.70;99.90;;;;;;4975733;28;20058;-80
2023/11/20 04:16:26;;;;;;;14.80;1.30;;;10.70;99.90;;;;;;4996131;28;20042;-86
2023/11/20 04:18:52;;;;;;;14.07;0.90;;;10.70;99.90;;;;;;4977234;28;20053;-82
2023/11/20 04:21:18;;;;;;;14.65;0.80;;;10.70;99.90;;;;;;4993441;28;20026;-81
2023/11/20 04:23:44;;;;;;;22.20;1.58;;;10.70;99.90;;;;;;4976386;28;20462;-80
2023/11/20 04:26:09;;;;;;;13.05;1.17;;;10.80;99.90;;;;;;4993660;28;20351;-80
2023/11/20 04:28:35;;;;;;;13.10;1.20;;;10.80;99.90;;;;;;4979846;28;20026;-78
2023/11/20 04:31:01;;;;;;;18.35;1.70;;;10.80;99.90;;;;;;4977681;28;20034;-79
2023/11/20 04:33:27;;;;;;;19.20;0.98;;;10.80;99.90;;;;;;4990597;28;20355;-80
2023/11/20 04:35:53;;;;;;;17.17;1.20;;;10.80;99.90;;;;;;4980599;28;20066;-83
2023/11/20 04:38:19;;;;;;;16.38;1.83;;;10.80;99.90;;;;;;4993208;28;20203;-81
2023/11/20 04:40:48;;;;;;;10.13;0.90;;;10.80;99.90;;;;;;4983136;28;20027;-81
2023/11/20 04:43:15;;;;;;;22.27;0.90;;;10.80;99.90;;;;;;4994052;28;20402;-82
2023/11/20 04:45:40;;;;;;;8.05;0.65;;;10.80;99.90;;;;;;4977307;28;20040;-79
2023/11/20 04:48:06;;;;;;;15.55;1.20;;;10.80;99.90;;;;;;4986189;28;20454;-86
2023/11/20 04:50:32;;;;;;;13.02;1.17;;;10.80;99.90;;;;;;4991557;28;20030;-81
2023/11/20 04:52:57;;;;;;;8.93;0.63;;;10.80;99.90;;;;;;4965822;28;20050;-82
2023/11/20 04:55:23;;;;;;;18.20;1.00;;;10.80;99.90;;;;;;4992041;28;20070;-83
2023/11/20 04:57:49;;;;;;;14.32;0.82;;;10.70;99.90;;;;;;4993673;28;20110;-82
2023/11/20 05:00:15;;;;;;;18.38;0.93;;;10.70;99.90;;;;;;4984053;28;20497;-81
2023/11/20 05:02:40;;;;;;;11.98;0.93;;;10.70;99.90;;;;;;4993174;28;20380;-84
2023/11/20 05:05:06;;;;;;;15.60;1.30;;;10.70;99.90;;;;;;4994923;28;20054;-81
2023/11/20 05:07:34;;;;;;;14.15;0.70;;;10.70;99.90;;;;;;4987026;28;20027;-83
2023/11/20 05:10:00;;;;;;;11.55;1.08;;;10.70;99.90;;;;;;4980406;28;20106;-85
2023/11/20 05:12:26;;;;;;;14.45;1.02;;;10.60;99.90;;;;;;4982070;28;20122;-83
2023/11/20 05:14:51;;;;;;;9.38;0.90;;;10.60;99.90;;;;;;4977653;28;20114;-84
2023/11/20 05:17:20;;;;;;;9.48;0.70;;;10.60;99.90;;;;;;4983028;28;20130;-80
2023/11/20 05:19:46;;;;;;;12.25;1.02;;;10.60;99.90;;;;;;4975905;28;20058;-83
2023/11/20 05:22:12;;;;;;;9.82;1.30;;;10.60;99.90;;;;;;4983150;28;20030;-84
2023/11/20 05:24:41;;;;;;;13.30;1.02;;;10.60;99.90;;;;;;4992429;28;20055;-83
2023/11/20 05:27:10;;;;;;;19.98;1.55;;;10.60;99.90;;;;;;4978756;28;20026;-83
2023/11/20 05:29:37;;;;;;;9.52;1.05;;;10.60;99.90;;;;;;4993059;28;20038;-86
2023/11/20 05:32:04;;;;;;;11.88;0.82;;;10.60;99.90;;;;;;4975452;28;20054;-84
2023/11/20 05:34:30;;;;;;;15.95;1.08;;;10.60;99.90;;;;;;4977339;28;20026;-85
2023/11/20 05:36:55;;;;;;;14.75;0.95;;;10.60;99.90;;;;;;4979916;28;20521;-81
2023/11/20 05:39:22;;;;;;;15.48;1.92;;;10.50;99.90;;;;;;4999235;28;20463;-82
2023/11/20 05:41:47;;;;;;;14.88;0.82;;;10.60;99.90;;;;;;4998104;28;20468;-86
2023/11/20 05:44:14;;;;;;;18.25;1.00;;;10.60;99.90;;;;;;4988803;28;20113;-85
2023/11/20 05:46:39;;;;;;;15.43;1.48;;;10.60;99.90;;;;;;4983865;28;20039;-87
2023/11/20 05:49:05;;;;;;;15.90;0.70;;;10.60;99.90;;;;;;4973484;28;20026;-84
2023/11/20 05:51:31;;;;;;;14.70;1.27;;;10.50;99.90;;;;;;4986513;28;20076;-87
2023/11/20 05:53:57;;;;;;;19.02;1.27;;;10.50;99.90;;;;;;4964831;28;20061;-81
2023/11/20 05:56:23;;;;;;;7.55;0.52;;;10.50;99.90;;;;;;4974338;28;20050;-83
2023/11/20 05:58:49;;;;;;;4.40;0.40;;;10.40;99.90;;;;;;4973605;28;20068;-86
2023/11/20 06:01:15;;;;;;;10.73;1.02;;;10.40;99.90;;;;;;4970447;28;20430;-81
2023/11/20 06:03:40;;;;;;;11.70;0.90;;;10.40;99.90;;;;;;4981493;28;20495;-85
2023/11/20 06:06:06;;;;;;;13.23;0.98;;;10.40;99.90;;;;;;4997005;28;20406;-85
2023/11/20 06:08:32;;;;;;;10.95;0.50;;;10.40;99.90;;;;;;4987021;28;20080;-83
2023/11/20 06:10:58;;;;;;;13.55;0.98;;;10.40;99.90;;;;;;4967995;28;20098;-87
2023/11/20 06:13:23;;;;;;;12.00;0.60;;;10.30;99.90;;;;;;4988922;28;20054;-87
2023/11/20 06:15:49;;;;;;;14.25;1.10;;;10.30;99.90;;;;;;4984481;28;20030;-87
2023/11/20 06:18:14;;;;;;;11.35;0.60;;;10.30;99.90;;;;;;4985244;28;20053;-85
2023/11/20 06:20:40;;;;;;;11.40;1.02;;;10.30;99.90;;;;;;4977822;28;20031;-87
2023/11/20 06:23:08;;;;;;;14.45;1.15;;;10.30;99.90;;;;;;4981064;28;20251;-86
2023/11/20 06:25:34;;;;;;;12.30;1.20;;;10.30;99.90;;;;;;4996441;28;20038;-89
2023/11/20 06:27:59;;;;;;;10.85;0.65;;;10.30;99.90;;;;;;4995665;28;20064;-84
2023/11/20 06:30:25;;;;;;;14.85;0.75;;;10.30;99.90;;;;;;4980215;28;20077;-88
2023/11/20 06:32:51;;;;;;;13.45;0.98;;;10.30;99.90;;;;;;4983772;28;20086;-86
2023/11/20 06:35:17;;;;;;;11.80;0.60;;;10.30;99.90;;;;;;4979520;28;20031;-86
2023/11/20 06:37:43;;;;;;;9.18;0.68;;;10.40;99.90;;;;;;4996258;28;20035;-85
2023/11/20 06:40:09;;;;;;;9.20;0.93;;;10.30;99.90;;;;;;4998135;28;20027;-89
2023/11/20 06:42:35;;;;;;;8.07;0.80;;;10.30;99.90;;;;;;4972728;28;20105;-83
2023/11/20 06:45:01;;;;;;;7.40;0.90;;;10.30;99.90;;;;;;4984346;28;20530;-86
2023/11/20 06:47:26;;;;;;;13.63;1.10;;;10.30;99.90;;;;;;4985776;28;20538;-82
2023/11/20 06:49:52;;;;;;;10.48;1.00;;;10.30;99.90;;;;;;4983781;28;20028;-84
2023/11/20 06:52:17;;;;;;;16.55;2.25;;;10.20;99.90;;;;;;4983818;28;20538;-86
2023/11/20 06:54:43;;;;;;;12.07;1.00;;;10.20;99.90;;;;;;4978957;28;20410;-86
2023/11/20 06:57:10;;;;;;;18.50;1.13;;;10.20;99.90;;;;;;4995571;28;20046;-91
2023/11/20 06:59:36;;;;;;;16.35;1.13;;;10.20;99.90;;;;;;4980599;28;20027;-85
2023/11/20 07:02:01;;;;;;;10.38;0.77;;;10.20;99.90;;;;;;4971587;28;20034;-84
2023/11/20 07:04:27;;;;;;;12.65;0.80;;;10.20;99.90;;;;;;4984600;28;20065;-87
2023/11/20 07:06:53;;;;;;;11.57;0.82;;;10.20;99.90;;;;;;4983375;28;20035;-88
2023/11/20 07:09:25;;;;;;;13.95;1.25;;;10.20;99.90;;;;;;4995123;28;20106;-91
2023/11/20 07:11:51;;;;;;;13.68;1.52;;;10.20;99.90;;;;;;4976117;28;20034;-89
2023/11/20 07:14:16;;;;;;;12.10;0.95;;;10.20;99.90;;;;;;4969121;28;20146;-85
2023/11/20 07:16:44;;;;;;;19.60;1.20;;;10.20;99.90;;;;;;4979629;28;20042;-86
2023/11/20 07:19:09;;;;;;;11.85;0.60;;;10.20;99.90;;;;;;4984950;28;20486;-86
2023/11/20 07:21:35;;;;;;;9.45;0.75;;;10.30;99.90;;;;;;4982870;28;20082;-86
2023/11/20 07:24:01;;;;;;;18.63;2.30;;;10.30;99.90;;;;;;4997874;28;20065;-90
2023/11/20 07:26:27;;;;;;;15.35;1.40;;;10.30;99.90;;;;;;4995341;28;20136;-86
2023/11/20 07:28:53;;;;;;;14.02;1.02;;;10.30;99.90;;;;;;4994067;28;20468;-89
2023/11/20 07:31:29;;;;;;;9.80;0.82;;;10.30;99.90;;;;;;4987532;28;20157;-79
2023/11/20 07:33:55;;;;;;;18.70;1.35;;;10.30;99.90;;;;;;4977058;28;20122;-86
2023/11/20 07:36:21;;;;;;;13.70;1.10;;;10.30;99.90;;;;;;4995762;28;20049;-89
2023/11/20 07:38:47;;;;;;;13.52;0.85;;;10.30;99.90;;;;;;4981847;28;20031;-88
2023/11/20 07:41:16;;;;;;;10.85;0.88;;;10.30;99.90;;;;;;4988416;28;20414;-86
2023/11/20 07:43:42;;;;;;;10.32;1.13;;;10.20;99.90;;;;;;4995431;28;20387;-86
2023/11/20 07:46:09;;;;;;;7.43;0.88;;;10.20;99.90;;;;;;4986702;28;20077;-88
2023/11/20 07:48:35;;;;;;;15.88;1.30;;;10.20;99.90;;;;;;4966397;28;20037;-87
2023/11/20 07:51:02;;;;;;;17.05;1.52;;;10.30;99.90;;;;;;4976518;28;20110;-82
2023/11/20 07:53:27;;;;;;;15.45;1.35;;;10.20;99.90;;;;;;4992881;28;20042;-90
2023/11/20 07:55:53;;;;;;;13.45;1.23;;;10.30;99.90;;;;;;4977944;28;20039;-87
2023/11/20 07:58:19;;;;;;;14.77;0.93;;;10.30;99.90;;;;;;4994083;28;20459;-88
2023/11/20 08:00:45;;;;;;;13.38;1.05;;;10.30;99.90;;;;;;4993544;28;20084;-88
2023/11/20 08:03:12;;;;;;;18.10;1.52;;;10.30;99.90;;;;;;4972134;28;20435;-88
2023/11/20 08:05:37;;;;;;;15.35;1.08;;;10.30;99.90;;;;;;4970909;28;20054;-90
2023/11/20 08:08:03;;;;;;;19.80;1.77;;;10.30;99.90;;;;;;4994997;28;20034;-80
2023/11/20 08:10:29;;;;;;;18.88;1.45;;;10.30;99.90;;;;;;4982874;28;20038;-81
2023/11/20 08:12:55;;;;;;;13.00;1.75;;;10.30;99.90;;;;;;4983904;28;20030;-81
2023/11/20 08:15:20;;;;;;;9.35;0.70;;;10.20;99.90;;;;;;4986172;28;20042;-81
2023/11/20 08:17:46;;;;;;;18.98;2.13;;;10.20;99.90;;;;;;4983587;28;20061;-81
2023/11/20 08:20:11;;;;;;;12.73;0.80;;;10.20;99.90;;;;;;4981277;28;20019;-80
2023/11/20 08:22:38;;;;;;;12.93;1.25;;;10.30;99.90;;;;;;4978016;28;20034;-81
2023/11/20 08:25:04;;;;;;;16.27;1.17;;;10.30;99.90;;;;;;4964631;28;20053;-85
2023/11/20 08:27:30;;;;;;;13.10;1.15;;;10.30;99.90;;;;;;4996500;28;20022;-84
2023/11/20 08:29:55;;;;;;;13.02;0.60;;;10.40;99.90;;;;;;4977308;28;20446;-83
2023/11/20 08:32:21;;;;;;;11.07;0.70;;;10.40;99.90;;;;;;4979469;28;20107;-82
2023/11/20 08:34:46;;;;;;;9.20;1.13;;;10.30;99.90;;;;;;4992957;28;20114;-83
2023/11/20 08:37:13;;;;;;;13.60;0.80;;;10.40;99.90;;;;;;4994771;28;20475;-84
2023/11/20 08:39:39;;;;;;;13.52;0.85;;;10.30;99.90;;;;;;4983039;28;20034;-84
2023/11/20 08:42:05;;;;;;;10.40;0.60;;;10.30;99.90;;;;;;4983883;28;20030;-87
2023/11/20 08:44:32;;;;;;;17.27;1.80;;;10.40;99.90;;;;;;4985358;28;20018;-86
2023/11/20 08:46:59;;;;;;;12.85;0.82;;;10.50;99.90;;;;;;4977994;28;20041;-82
2023/11/20 08:49:26;;;;;;;7.97;0.68;;;10.50;99.90;;;;;;4982388;28;20487;-82
2023/11/20 08:51:52;;;;;;;13.90;1.73;;;10.50;99.90;;;;;;4970216;28;20061;-87
2023/11/20 08:54:18;;;;;;;19.92;2.22;;;10.50;99.90;;;;;;4965536;28;20037;-83
2023/11/20 08:56:46;;;;;;;19.08;1.05;;;10.40;99.90;;;;;;4965194;28;20042;-82
2023/11/20 08:59:12;;;;;;;15.95;0.90;;;10.40;99.90;;;;;;4991467;28;20479;-86
2023/11/20 09:01:38;;;;;;;19.98;1.80;;;10.40;99.90;;;;;;4973744;28;20034;-81
2023/11/20 09:04:05;;;;;;;11.20;1.23;;;10.50;99.90;;;;;;4960076;28;20645;-83
2023/11/20 09:06:32;;;;;;;9.85;1.13;;;10.50;99.90;;;;;;4973912;28;20046;-84
2023/11/20 09:08:57;;;;;;;13.15;0.82;;;10.60;99.90;;;;;;4958833;28;20046;-85
2023/11/20 09:11:23;;;;;;;15.75;1.17;;;10.70;99.90;;;;;;4977886;28;20122;-85
2023/11/20 09:13:52;;;;;;;16.98;1.77;;;10.80;99.90;;;;;;4975524;28;20666;-82
2023/11/20 09:16:20;;;;;;;13.55;1.10;;;10.70;99.90;;;;;;4978621;28;20039;-84
2023/11/20 09:18:46;;;;;;;17.23;1.30;;;10.70;99.90;;;;;;4984625;28;20031;-85
2023/11/20 09:21:13;;;;;;;17.20;2.53;;;10.70;99.90;;;;;;4991319;28;20276;-85
2023/11/20 09:23:38;;;;;;;16.05;1.83;;;10.70;99.90;;;;;;4963535;28;20514;-86
2023/11/20 09:26:08;;;;;;;17.55;2.03;;;10.80;99.90;;;;;;4979574;28;20062;-88
2023/11/20 09:28:34;;;;;;;16.15;1.27;;;10.80;99.90;;;;;;4981186;28;20026;-87
2023/11/20 09:31:00;;;;;;;7.78;0.88;;;10.90;99.90;;;;;;4985087;28;20113;-88
2023/11/20 09:33:25;;;;;;;10.88;1.00;;;11.00;99.90;;;;;;4983789;28;20030;-88
2023/11/20 09:35:51;;;;;;;10.35;1.08;;;10.90;99.90;;;;;;4993174;28;20039;-90
2023/11/20 09:38:17;;;;;;;20.00;3.05;;;10.80;99.90;;;;;;4984201;28;20038;-86
2023/11/20 09:40:44;;;;;;;12.77;1.13;;;10.70;99.90;;;;;;4984595;28;20034;-89
2023/11/20 09:43:09;;;;;;;19.65;2.47;;;10.80;99.90;;;;;;4980830;28;20409;-88
2023/11/20 09:45:40;;;;;;;12.35;1.25;;;10.90;99.90;;;;;;4973759;28;20039;-86
2023/11/20 09:48:07;;;;;;;15.18;1.63;;;11.00;99.90;;;;;;4984844;28;20383;-88
2023/11/20 09:50:37;;;;;;;19.65;2.55;;;11.10;99.90;;;;;;4993537;28;20441;-89
2023/11/20 09:53:05;;;;;;;23.70;2.97;;;11.00;99.90;;;;;;4991128;28;20127;-86
2023/11/20 09:55:31;;;;;;;17.73;2.83;;;10.90;99.90;;;;;;4974231;28;20200;-83
2023/11/20 09:57:57;;;;;;;16.27;2.78;;;11.10;99.90;;;;;;4991017;28;20287;-87
2023/11/20 10:00:24;;;;;;;16.48;3.15;;;10.90;99.90;;;;;;4978829;28;20026;-88
2023/11/20 10:02:50;;;;;;;19.90;3.25;;;11.00;99.90;;;;;;4979259;28;20034;-90
2023/11/20 10:05:30;;;;;;;15.27;2.45;;;10.90;99.90;;;;;;4984118;28;20050;-86
2023/11/20 10:07:58;;;;;;;18.38;2.88;;;11.00;99.90;;;;;;4991446;28;20033;-88
2023/11/20 10:10:24;;;;;;;15.45;2.22;;;11.10;99.90;;;;;;4976367;28;20030;-86
2023/11/20 10:12:53;;;;;;;14.93;3.63;;;11.20;99.90;;;;;;4960300;28;20035;-91
2023/11/20 10:15:21;;;;;;;17.98;2.70;;;11.30;99.90;;;;;;4978020;28;20054;-87
2023/11/20 10:17:47;;;;;;;14.73;3.97;;;11.40;99.90;;;;;;4978354;28;20047;-85
2023/11/20 10:20:14;;;;;;;16.80;3.05;;;11.20;99.90;;;;;;4992243;28;20086;-83
2023/11/20 10:22:41;;;;;;;18.45;4.53;;;11.30;99.90;;;;;;4979540;28;20031;-86
2023/11/20 10:25:08;;;;;;;20.27;3.17;;;11.20;99.90;;;;;;4964540;28;20035;-89
2023/11/20 10:27:34;;;;;;;14.25;2.53;;;11.20;99.90;;;;;;4973943;28;20391;-81
2023/11/20 10:30:00;;;;;;;13.70;2.47;;;11.30;99.90;;;;;;4980062;28;20041;-88
2023/11/20 10:32:27;;;;;;;16.48;3.60;;;11.50;99.90;;;;;;4967056;28;20035;-87
2023/11/20 10:35:14;;;;;;;19.80;3.22;;;11.60;99.90;;;;;;4960679;28;20057;-85
2023/11/20 10:37:58;;;;;;;17.83;3.67;;;11.60;99.90;;;;;;4991563;28;20066;-90
2023/11/20 10:40:31;;;;;;;12.95;2.55;;;11.70;99.90;;;;;;4975174;28;20022;-91
2023/11/20 10:42:57;;;;;;;13.95;2.70;;;11.70;99.90;;;;;;4992371;28;20374;-88
2023/11/20 10:45:23;;;;;;;17.23;3.05;;;11.60;99.90;;;;;;4976183;28;20038;-87
2023/11/20 10:47:49;;;;;;;13.98;2.92;;;11.50;99.90;;;;;;4974284;28;20033;-86
2023/11/20 10:50:17;;;;;;;10.30;2.75;;;11.40;99.90;;;;;;4976876;28;20387;-87
2023/11/20 10:52:44;;;;;;;12.20;2.42;;;11.40;99.90;;;;;;4974919;28;20031;-90
2023/11/20 10:55:14;;;;;;;11.93;2.65;;;11.50;99.90;;;;;;4991451;28;20038;-84
2023/11/20 10:57:40;;;;;;;11.73;2.13;;;11.40;99.90;;;;;;4977580;28;20035;-83
2023/11/20 11:00:11;;;;;;;15.35;2.92;;;11.70;99.90;;;;;;4990937;28;20451;-81
2023/11/20 11:02:44;;;;;;;11.23;2.33;;;11.80;99.90;;;;;;4962224;28;20034;-85
2023/11/20 11:05:12;;;;;;;16.58;3.92;;;11.90;99.90;;;;;;4976019;28;20129;-81
2023/11/20 11:07:39;;;;;;;10.55;1.98;;;11.90;99.90;;;;;;4960274;28;20091;-83
2023/11/20 11:10:14;;;;;;;11.32;2.47;;;11.70;99.90;;;;;;4961556;28;20031;-87
2023/11/20 11:12:44;;;;;;;15.75;3.50;;;11.50;99.90;;;;;;4990444;28;20030;-89
2023/11/20 11:15:14;;;;;;;12.30;2.65;;;11.20;99.90;;;;;;4989300;28;20030;-84
2023/11/20 11:18:14;;;;;;;17.35;4.13;;;11.10;99.90;;;;;;4976917;28;20121;-81
2023/11/20 11:20:57;;;;;;;14.68;3.25;;;11.30;99.90;;;;;;4949904;28;20055;-86
2023/11/20 11:23:49;;;;;;;13.02;3.28;;;11.60;99.90;;;;;;4976649;28;20113;-87
2023/11/20 11:26:39;;;;;;;14.25;3.88;;;11.70;99.90;;;;;;4988756;28;20041;-84
2023/11/20 11:29:08;;;;;;;18.27;3.90;;;11.70;99.90;;;;;;4973089;28;20026;-81
2023/11/20 11:32:10;;;;;;;15.35;3.97;;;11.80;99.90;;;;;;4960754;28;20372;-88
2023/11/20 11:34:53;;;;;;;7.95;2.80;;;11.80;99.90;;;;;;4988641;28;20392;-82
2023/11/20 11:37:31;;;;;;;14.93;3.42;;;11.80;99.90;;;;;;4989024;28;20498;-85
2023/11/20 11:40:20;;;;;;;15.95;3.13;;;11.90;99.90;;;;;;4991474;28;20126;-89
2023/11/20 11:42:55;;;;;;;9.00;2.42;;;11.90;99.90;;;;;;4957064;28;20054;-81
2023/11/20 11:45:27;;;;;;;12.35;2.88;;;12.00;99.90;;;;;;4989462;28;20125;-86
2023/11/20 11:47:52;;;;;;;12.15;2.83;;;12.20;99.90;;;;;;4990155;28;20109;-81
2023/11/20 11:50:18;;;;;;;8.07;2.17;;;12.20;99.90;;;;;;4974211;28;20045;-85
2023/11/20 11:52:50;;;;;;;9.23;2.90;;;12.40;99.90;;;;;;4977491;28;20031;-83
2023/11/20 11:55:16;;;;;;;11.93;3.58;;;12.50;99.90;;;;;;4961267;28;20464;-85
2023/11/20 11:58:15;;;;;;;11.63;2.50;;;12.70;99.90;;;;;;4989085;28;20120;-84
2023/11/20 12:00:41;;;;;;;9.82;2.55;;;12.80;99.90;;;;;;4937601;28;20057;-84
2023/11/20 12:03:11;;;;;;;10.20;1.92;;;12.90;99.90;;;;;;4965265;28;20490;-82
2023/11/20 12:05:55;;;;;;;11.77;2.33;;;12.80;99.90;;;;;;4983205;28;20061;-87
2023/11/20 12:08:22;;;;;;;8.63;1.27;;;12.70;99.90;;;;;;4980674;28;20455;-89
2023/11/20 12:10:53;;;;;;;8.70;1.75;;;12.60;99.90;;;;;;4960505;28;20081;-82
2023/11/20 12:13:23;;;;;;;9.38;1.75;;;12.50;99.90;;;;;;4991123;28;20449;-89
2023/11/20 12:15:56;;;;;;;8.77;1.95;;;12.30;99.90;;;;;;4964680;28;20045;-88
2023/11/20 12:18:32;;;;;;;8.55;1.58;;;12.40;99.90;;;;;;4974840;28;20045;-81
2023/11/20 12:20:57;;;;;;;13.07;2.70;;;12.40;99.90;;;;;;4975185;28;20233;-84
2023/11/20 12:23:42;;;;;;;10.65;1.55;;;12.60;99.90;;;;;;4989995;28;20240;-84
2023/11/20 12:26:12;;;;;;;8.27;1.25;;;12.80;99.90;;;;;;4976537;28;20082;-81
2023/11/20 12:28:40;;;;;;;9.63;1.75;;;13.10;99.90;;;;;;4973778;28;20023;-83
2023/11/20 12:31:09;;;;;;;14.10;1.67;;;13.10;99.90;;;;;;4984358;28;20058;-82
2023/11/20 12:33:46;;;;;;;12.88;1.38;;;12.80;99.90;;;;;;4982578;28;20382;-82
2023/11/20 12:36:12;;;;;;;8.07;2.05;;;12.40;99.90;;;;;;4979326;28;20035;-81
2023/11/20 12:38:40;;;;;;;8.18;1.00;;;12.40;99.90;;;;;;4988510;28;20039;-82
2023/11/20 12:41:09;;;;;;;15.05;2.67;;;12.60;99.90;;;;;;4972787;28;20445;-79